^^
Saratoga-Weather Station Historical Data
Daily Summary for May 11, 2021 Units:  English    Metric   Both
Daily Weekly Monthly Yearly Custom
  High: Low: Average:
Temperature: 82.8 °F 60.6 °F 72.3 °F
Dew Point: 62.4 °F 56.8 °F 59.2 °F
Humidity: 88% 46% 65%
Wind Speed: 9mph 0mph 1.7mph
Wind Gust: 11mph - -
Wind- - SW
Pressure: 30.1 in 30 in -
Precipitation: 0 in    
Historical Graphs
 
 
Tabular Data for May 11, 2021
Time Temperature Dew Point Pressure Wind Wind Speed Wind Gust Humidity Rainfall Rate (Hourly) solar
00:01 68.9 °F 58.3 °F 30.1 in WSW 2 mph 3 mph 69% 0 in 0 W/m2
00:06 69.1 °F 58.5 °F 30.1 in WSW 0.9 mph 2 mph 69% 0 in 0 W/m2
00:11 69.1 °F 58.5 °F 30.1 in WSW 2 mph 2 mph 69% 0 in 0 W/m2
00:16 69.1 °F 58.5 °F 30.1 in WSW 2.9 mph 4 mph 69% 0 in 0 W/m2
00:21 68.9 °F 58.3 °F 30.1 in WSW 2 mph 3 mph 69% 0 in 0 W/m2
00:27 68.7 °F 58.5 °F 30.1 in SW 0.9 mph 4 mph 70% 0 in 0 W/m2
00:32 68.7 °F 58.5 °F 30.1 in WSW 0.9 mph 3 mph 70% 0 in 0 W/m2
00:37 68.5 °F 58.3 °F 30.1 in WSW 2 mph 3 mph 70% 0 in 0 W/m2
00:42 68.5 °F 58.3 °F 30.1 in WSW 2 mph 4 mph 70% 0 in 0 W/m2
00:47 68.4 °F 58.6 °F 30.1 in WSW 2 mph 2 mph 71% 0 in 0 W/m2
00:52 68.2 °F 58.5 °F 30.1 in WSW 0.9 mph 4 mph 71% 0 in 0 W/m2
00:57 68.2 °F 58.1 °F 30.1 in SW 2 mph 3 mph 70% 0 in 0 W/m2
01:02 68.2 °F 58.1 °F 30.1 in WSW 2 mph 4 mph 70% 0 in 0 W/m2
01:07 68.2 °F 58.1 °F 30.1 in WSW 0.9 mph 2 mph 70% 0 in 0 W/m2
01:12 68.4 °F 58.3 °F 30.1 in Calm   4 mph 70% 0 in 0 W/m2
01:17 68.2 °F 58.1 °F 30.1 in SE 2 mph 3 mph 70% 0 in 0 W/m2
01:22 67.6 °F 58.6 °F 30.1 in SE 0.9 mph 3 mph 73% 0 in 0 W/m2
01:27 67.3 °F 58.3 °F 30.1 in Calm     73% 0 in 0 W/m2
01:32 66.7 °F 58.1 °F 30.1 in Calm     74% 0 in 0 W/m2
01:37 66.4 °F 58.6 °F 30.1 in Calm     76% 0 in 0 W/m2
01:42 65.8 °F 58.1 °F 30.1 in Calm     76% 0 in 0 W/m2
01:47 65.5 °F 58.1 °F 30.1 in Calm     77% 0 in 0 W/m2
01:52 65.1 °F 58.1 °F 30.1 in Calm     78% 0 in 0 W/m2
01:57 64.9 °F 57.9 °F 30.1 in Calm     78% 0 in 0 W/m2
02:02 64.6 °F 57.9 °F 30.1 in Calm     79% 0 in 0 W/m2
02:07 64.2 °F 57.6 °F 30.1 in Calm     79% 0 in 0 W/m2
02:12 64 °F 57.7 °F 30.1 in Calm     80% 0 in 0 W/m2
02:17 63.9 °F 57.9 °F 30.1 in Calm     81% 0 in 0 W/m2
02:22 63.7 °F 57.7 °F 30.1 in Calm     81% 0 in 0 W/m2
02:27 63.5 °F 57.9 °F 30.1 in Calm     82% 0 in 0 W/m2
02:32 63.3 °F 57.7 °F 30.1 in Calm     82% 0 in 0 W/m2
02:37 63.1 °F 57.6 °F 30.1 in Calm     82% 0 in 0 W/m2
02:42 63 °F 57.7 °F 30.1 in Calm     83% 0 in 0 W/m2
02:47 62.8 °F 57.6 °F 30.1 in Calm     83% 0 in 0 W/m2
02:52 62.6 °F 57.4 °F 30.1 in Calm     83% 0 in 0 W/m2
02:57 62.4 °F 57.6 °F 30.1 in Calm     84% 0 in 0 W/m2
03:02 62.2 °F 57.4 °F 30.1 in Calm     84% 0 in 0 W/m2
03:07 62.1 °F 57.6 °F 30.1 in Calm     85% 0 in 0 W/m2
03:12 62.1 °F 57.6 °F 30.1 in Calm     85% 0 in 0 W/m2
03:17 61.9 °F 57.4 °F 30.1 in Calm     85% 0 in 0 W/m2
03:22 61.9 °F 57.4 °F 30.1 in Calm     85% 0 in 0 W/m2
03:27 61.9 °F 57.4 °F 30.1 in Calm     85% 0 in 0 W/m2
03:32 61.7 °F 57.2 °F 30.1 in Calm     85% 0 in 0 W/m2
03:37 61.7 °F 57.4 °F 30.1 in Calm     86% 0 in 0 W/m2
03:42 61.5 °F 57.4 °F 30.1 in Calm     86% 0 in 0 W/m2
03:47 61.5 °F 57.4 °F 30.1 in Calm     86% 0 in 0 W/m2
03:52 61.5 °F 57.4 °F 30.1 in Calm     86% 0 in 0 W/m2
03:57 61.3 °F 57.2 °F 30.1 in Calm     86% 0 in 0 W/m2
04:02 61.2 °F 57.2 °F 30.1 in Calm     87% 0 in 0 W/m2
04:07 61.2 °F 57.2 °F 30.1 in Calm     87% 0 in 0 W/m2
04:12 61.2 °F 57.2 °F 30.1 in Calm     87% 0 in 0 W/m2
04:17 61 °F 57 °F 30.1 in Calm     87% 0 in 0 W/m2
04:22 61 °F 57 °F 30.1 in Calm     87% 0 in 0 W/m2
04:27 60.8 °F 57.2 °F 30.1 in Calm     88% 0 in 0 W/m2
04:32 60.8 °F 57.2 °F 30.1 in Calm     88% 0 in 0 W/m2
04:37 60.8 °F 56.8 °F 30.1 in Calm     87% 0 in 0 W/m2
04:42 60.8 °F 56.8 °F 30.1 in Calm     87% 0 in 0 W/m2
04:47 60.6 °F 57 °F 30.1 in Calm     88% 0 in 0 W/m2
04:52 60.6 °F 57 °F 30.1 in Calm     88% 0 in 0 W/m2
04:57 60.8 °F 57.2 °F 30.1 in Calm     88% 0 in 0 W/m2
05:02 60.8 °F 57.2 °F 30.1 in Calm     88% 0 in 0 W/m2
05:07 61 °F 57.4 °F 30.1 in Calm   1 mph 88% 0 in 0 W/m2
05:12 61 °F 57.4 °F 30.1 in South 0.9 mph 2 mph 88% 0 in 0 W/m2
05:17 61.2 °F 57.2 °F 30.1 in Calm   1 mph 87% 0 in 0 W/m2
05:22 61.2 °F 57.2 °F 30.1 in Calm   2 mph 87% 0 in 0 W/m2
05:28 61.2 °F 57.2 °F 30.1 in WSW 0.9 mph 2 mph 87% 0 in 0 W/m2
05:33 61.2 °F 57.2 °F 30.1 in Calm   3 mph 87% 0 in 5 W/m2
05:38 61.2 °F 57.2 °F 30.1 in WSW 2 mph 3 mph 87% 0 in 5 W/m2
05:43 61.2 °F 57.2 °F 30.1 in WNW 0.9 mph 2 mph 87% 0 in 9 W/m2
05:48 61.2 °F 57 °F 30.1 in WNW 2 mph 2 mph 86% 0 in 11 W/m2
05:53 61.2 °F 57 °F 30.1 in West 0.9 mph 2 mph 86% 0 in 12 W/m2
05:58 61.3 °F 57.2 °F 30.1 in Calm   2 mph 86% 0 in 16 W/m2
06:03 61.3 °F 57.2 °F 30.1 in Calm     86% 0 in 18 W/m2
06:08 61.3 °F 57.2 °F 30.1 in Calm   2 mph 86% 0 in 21 W/m2
06:13 61.2 °F 57 °F 30.1 in Calm     86% 0 in 25 W/m2
06:18 61.2 °F 57 °F 30.1 in Calm   1 mph 86% 0 in 26 W/m2
06:23 61.2 °F 57.2 °F 30.1 in Calm     87% 0 in 28 W/m2
06:28 61.2 °F 57.2 °F 30.1 in Calm     87% 0 in 30 W/m2
06:33 61.2 °F 57.2 °F 30.1 in Calm     87% 0 in 32 W/m2
06:38 61.2 °F 57.2 °F 30.1 in Calm     87% 0 in 33 W/m2
06:43 61.2 °F 57.2 °F 30.1 in Calm     87% 0 in 35 W/m2
06:48 61.5 °F 57.9 °F 30.1 in Calm     88% 0 in 37 W/m2
06:53 61.5 °F 57.6 °F 30.1 in Calm     87% 0 in 39 W/m2
06:58 61.9 °F 57.9 °F 30.1 in Calm     87% 0 in 40 W/m2
07:03 62.1 °F 58.1 °F 30.1 in Calm     87% 0 in 42 W/m2
07:08 62.2 °F 57.9 °F 30.1 in Calm   1 mph 86% 0 in 42 W/m2
07:13 62.8 °F 58.3 °F 30.1 in Calm   1 mph 85% 0 in 44 W/m2
07:18 63.1 °F 58.6 °F 30.1 in Calm   1 mph 85% 0 in 44 W/m2
07:23 63.3 °F 58.5 °F 30.1 in Calm     84% 0 in 46 W/m2
07:28 63.9 °F 58.3 °F 30.1 in Calm   1 mph 82% 0 in 47 W/m2
07:33 64.2 °F 58.6 °F 30.1 in Calm   1 mph 82% 0 in 49 W/m2
07:38 64.8 °F 58.5 °F 30.1 in Calm     80% 0 in 84 W/m2
07:43 65.1 °F 58.5 °F 30.1 in Calm     79% 0 in 211 W/m2
07:48 65.7 °F 58.6 °F 30.1 in Calm     78% 0 in 234 W/m2
07:53 66.4 °F 59 °F 30.1 in Calm   1 mph 77% 0 in 244 W/m2
07:58 67.5 °F 59.2 °F 30.1 in Calm     75% 0 in 262 W/m2
08:03 68.7 °F 59.4 °F 30.1 in Calm     72% 0 in 265 W/m2
08:08 69.4 °F 59.2 °F 30.1 in Calm     70% 0 in 197 W/m2
08:13 70.2 °F 59.5 °F 30.1 in Calm     69% 0 in 98 W/m2
08:18 70.5 °F 59.4 °F 30.1 in Calm   1 mph 68% 0 in 60 W/m2
08:23 70.5 °F 59.4 °F 30.1 in Calm     68% 0 in 60 W/m2
08:28 71.4 °F 59.9 °F 30.1 in Calm   1 mph 67% 0 in 60 W/m2
08:33 72.3 °F 59.9 °F 30.1 in NE 0.9 mph 2 mph 65% 0 in 58 W/m2
08:38 72.3 °F 59.5 °F 30.1 in Calm   2 mph 64% 0 in 56 W/m2
08:43 72.1 °F 60.1 °F 30.1 in Calm   1 mph 66% 0 in 56 W/m2
08:48 72.9 °F 59.9 °F 30.1 in ENE 2 mph 2 mph 64% 0 in 56 W/m2
08:53 73.2 °F 59.9 °F 30.1 in ESE 0.9 mph 3 mph 63% 0 in 58 W/m2
08:58 73.2 °F 60.3 °F 30.1 in East 2 mph 2 mph 64% 0 in 60 W/m2
09:03 73.2 °F 60.3 °F 30.1 in East 0.9 mph 2 mph 64% 0 in 63 W/m2
09:08 73.2 °F 59.9 °F 30.1 in NE 4 mph 4 mph 63% 0 in 142 W/m2
09:13 73.2 °F 59.4 °F 30.1 in NE 0.9 mph 2 mph 62% 0 in 295 W/m2
09:18 73.2 °F 59.9 °F 30.1 in SE 2.9 mph 3 mph 63% 0 in 468 W/m2
09:23 73.2 °F 59.4 °F 30.1 in Calm   2 mph 62% 0 in 492 W/m2
09:28 73.2 °F 59.9 °F 30.1 in Calm   2 mph 63% 0 in 506 W/m2
09:33 73.6 °F 61.2 °F 30.1 in Calm   2 mph 65% 0 in 520 W/m2
09:38 73.9 °F 60.1 °F 30.1 in ENE 0.9 mph 1 mph 62% 0 in 534 W/m2
09:43 73.9 °F 60.6 °F 30.1 in ESE 2 mph 2 mph 63% 0 in 545 W/m2
09:48 74.5 °F 60.1 °F 30.1 in SE 0.9 mph 4 mph 61% 0 in 563 W/m2
09:53 74.5 °F 60.6 °F 30.1 in Calm   2 mph 62% 0 in 568 W/m2
09:58 74.8 °F 59.5 °F 30.1 in Calm   3 mph 59% 0 in 582 W/m2
10:03 75 °F 59.7 °F 30.1 in NNE 2 mph 3 mph 59% 0 in 578 W/m2
10:08 75.4 °F 59.5 °F 30.1 in Calm   2 mph 58% 0 in 86 W/m2
10:13 75.7 °F 59 °F 30.1 in ESE 2.9 mph 4 mph 56% 0 in 107 W/m2
10:18 75.9 °F 60.1 °F 30.1 in NE 0.9 mph 3 mph 58% 0 in 613 W/m2
10:23 76.3 °F 59.4 °F 30.1 in NW 2 mph 3 mph 56% 0 in 635 W/m2
10:28 76.1 °F 59.7 °F 30.1 in NW 2 mph 2 mph 57% 0 in 645 W/m2
10:33 76.3 °F 58.5 °F 30.1 in ENE 2.9 mph 3 mph 54% 0 in 654 W/m2
10:38 76.6 °F 58.3 °F 30.1 in Calm   2 mph 53% 0 in 680 W/m2
10:43 77.2 °F 58.3 °F 30.1 in ENE 2 mph 5 mph 52% 0 in 687 W/m2
10:48 77.2 °F 59.2 °F 30.1 in ESE 2 mph 4 mph 54% 0 in 700 W/m2
10:53 77.5 °F 57.9 °F 30.1 in SE 2 mph 3 mph 51% 0 in 712 W/m2
10:58 77.9 °F 59.4 °F 30.1 in ENE 2.9 mph 3 mph 53% 0 in 724 W/m2
11:03 77.9 °F 58.8 °F 30.1 in ENE 0.9 mph 3 mph 52% 0 in 735 W/m2
11:08 78.1 °F 60.1 °F 30.1 in East 2.9 mph 6 mph 54% 0 in 744 W/m2
11:13 78.3 °F 58.6 °F 30.1 in ESE 2.9 mph 3 mph 51% 0 in 749 W/m2
11:18 78.6 °F 60.1 °F 30.1 in ENE 2 mph 2 mph 53% 0 in 758 W/m2
11:23 79.2 °F 59.5 °F 30.1 in NE 0.9 mph 2 mph 51% 0 in 772 W/m2
11:28 79.2 °F 59.5 °F 30.1 in Calm   2 mph 51% 0 in 773 W/m2
11:33 79 °F 59.4 °F 30.1 in Calm   2 mph 51% 0 in 766 W/m2
11:38 79.3 °F 59 °F 30.1 in ESE 4 mph 6 mph 50% 0 in 773 W/m2
11:43 79.5 °F 59.2 °F 30.1 in WNW 2.9 mph 4 mph 50% 0 in 740 W/m2
11:48 79.3 °F 58.5 °F 30.1 in WNW 4 mph 4 mph 49% 0 in 798 W/m2
11:53 79 °F 57 °F 30.1 in NW 0.9 mph 2 mph 47% 0 in 823 W/m2
11:58 79.2 °F 59 °F 30.1 in NNW 2.9 mph 4 mph 50% 0 in 844 W/m2
12:03 79 °F 57.6 °F 30.1 in NW 0.9 mph 2 mph 48% 0 in 844 W/m2
12:08 79.2 °F 58.3 °F 30.1 in WSW 2.9 mph 4 mph 49% 0 in 854 W/m2
12:13 79.3 °F 58.5 °F 30.1 in WSW 0.9 mph 8 mph 49% 0 in 851 W/m2
12:18 79.3 °F 57.9 °F 30.1 in West 6 mph 7 mph 48% 0 in 846 W/m2
12:23 79.2 °F 59 °F 30.1 in Calm   3 mph 50% 0 in 867 W/m2
12:28 79.3 °F 57.9 °F 30.1 in ESE 0.9 mph 7 mph 48% 0 in 891 W/m2
12:33 79.7 °F 58.8 °F 30.1 in West 2.9 mph 5 mph 49% 0 in 900 W/m2
12:38 80.1 °F 59.2 °F 30.1 in NNW 2.9 mph 5 mph 49% 0 in 930 W/m2
12:43 80.2 °F 58.1 °F 30.1 in WNW 2 mph 7 mph 47% 0 in 932 W/m2
12:48 80.2 °F 58.1 °F 30.1 in WSW 0.9 mph 2 mph 47% 0 in 912 W/m2
12:53 80.8 °F 60.4 °F 30.1 in NW 2 mph 7 mph 50% 0 in 888 W/m2
12:58 80.6 °F 57.9 °F 30.1 in NE 2 mph 3 mph 46% 0 in 925 W/m2
13:03 80.6 °F 59.7 °F 30.1 in WSW 2.9 mph 5 mph 49% 0 in 891 W/m2
13:08 80.1 °F 60.3 °F 30.1 in WSW 4 mph 8 mph 51% 0 in 962 W/m2
13:13 79.9 °F 60.6 °F 30.1 in WNW 2 mph 5 mph 52% 0 in 977 W/m2
13:18 80.1 °F 58.6 °F 30.1 in NW 4.9 mph 10 mph 48% 0 in 970 W/m2
13:23 79.9 °F 59.5 °F 30.1 in WSW 0.9 mph 7 mph 50% 0 in 976 W/m2
13:28 80.2 °F 59.4 °F 30.1 in NW 0.9 mph 4 mph 49% 0 in 997 W/m2
13:33 80.6 °F 60.3 °F 30.1 in WNW 4 mph 8 mph 50% 0 in 1000 W/m2
13:38 80.4 °F 59.5 °F 30.1 in NNW 0.9 mph 7 mph 49% 0 in 1013 W/m2
13:43 80.6 °F 59.7 °F 30.1 in Calm   4 mph 49% 0 in 986 W/m2
13:48 81 °F 61.7 °F 30.1 in North 2 mph 4 mph 52% 0 in 949 W/m2
13:53 81 °F 59.4 °F 30.1 in NNW 2 mph 7 mph 48% 0 in 220 W/m2
13:58 80.2 °F 59.4 °F 30.1 in East 2 mph 4 mph 49% 0 in 309 W/m2
14:03 80.4 °F 61.7 °F 30.1 in NW 9 mph 9 mph 53% 0 in 1074 W/m2
14:08 81.1 °F 61.3 °F 30.1 in WNW 2.9 mph 6 mph 51% 0 in 998 W/m2
14:13 81.1 °F 61.3 °F 30.1 in West 6.9 mph 7 mph 51% 0 in 1042 W/m2
14:18 81.1 °F 61.9 °F 30.1 in WSW 0.9 mph 7 mph 52% 0 in 977 W/m2
14:23 81.1 °F 60.8 °F 30.1 in SW 6.9 mph 10 mph 50% 0 in 979 W/m2
14:28 81.1 °F 61.9 °F 30.1 in SW 2.9 mph 4 mph 52% 0 in 963 W/m2
14:33 81 °F 61.7 °F 30.1 in NW 2.9 mph 10 mph 52% 0 in 981 W/m2
14:38 80.8 °F 62.1 °F 30.1 in WNW 2.9 mph 8 mph 53% 0 in 1007 W/m2
14:43 81.1 °F 60.8 °F 30.1 in NW 4 mph 4 mph 50% 0 in 958 W/m2
14:48 81.5 °F 60.4 °F 30.1 in NNW 2.9 mph 4 mph 49% 0 in 991 W/m2
14:53 81.9 °F 61.9 °F 30.1 in WNW 0.9 mph 3 mph 51% 0 in 984 W/m2
14:58 82 °F 60.4 °F 30.1 in Calm   11 mph 48% 0 in 1055 W/m2
15:03 82 °F 61.5 °F 30.1 in WSW 4.9 mph 7 mph 50% 0 in 960 W/m2
15:08 82 °F 60.4 °F 30.1 in West 6 mph 11 mph 48% 0 in 954 W/m2
15:13 82 °F 61 °F 30.1 in West 6 mph 10 mph 49% 0 in 954 W/m2
15:18 81.9 °F 60.3 °F 30.1 in WSW 2.9 mph 7 mph 48% 0 in 970 W/m2
15:23 81.7 °F 61.2 °F 30.1 in NW 6.9 mph 7 mph 50% 0 in 976 W/m2
15:28 82 °F 61.5 °F 30.1 in West 4 mph 10 mph 50% 0 in 949 W/m2
15:33 82.2 °F 61.2 °F 30.1 in WNW 2.9 mph 10 mph 49% 0 in 918 W/m2
15:38 82.4 °F 61.3 °F 30.1 in WSW 4.9 mph 8 mph 49% 0 in 895 W/m2
15:43 82.6 °F 61.5 °F 30.1 in WNW 2 mph 5 mph 49% 0 in 186 W/m2
15:48 82.2 °F 59.9 °F 30.1 in NNE 2.9 mph 6 mph 47% 0 in 195 W/m2
15:53 81.9 °F 60.3 °F 30.1 in WNW 4 mph 9 mph 48% 0 in 874 W/m2
15:58 81.7 °F 61.2 °F 30.1 in WSW 6.9 mph 11 mph 50% 0 in 858 W/m2
16:03 81.7 °F 60.6 °F 30 in WNW 4 mph 6 mph 49% 0 in 835 W/m2
16:08 81.9 °F 61.3 °F 30 in WSW 4 mph 11 mph 50% 0 in 854 W/m2
16:13 81.9 °F 62.4 °F 30 in WSW 4 mph 6 mph 52% 0 in 821 W/m2
16:18 81.9 °F 61.3 °F 30 in West 4 mph 7 mph 50% 0 in 814 W/m2
16:23 82.2 °F 61.2 °F 30 in WSW 2.9 mph 6 mph 49% 0 in 798 W/m2
16:28 82.2 °F 61.2 °F 30 in WSW 2.9 mph 8 mph 49% 0 in 798 W/m2
16:34 82 °F 60.4 °F 30 in WSW 2.9 mph 8 mph 48% 0 in 139 W/m2
16:39 81.7 °F 61.9 °F 30 in WNW 8.1 mph 10 mph 51% 0 in 752 W/m2
16:44 82 °F 61.5 °F 30 in WSW 6 mph 7 mph 50% 0 in 795 W/m2
16:49 82.2 °F 62.2 °F 30 in WSW 8.9 mph 10 mph 51% 0 in 763 W/m2
16:54 82 °F 62.1 °F 30 in WSW 2 mph 7 mph 51% 0 in 715 W/m2
16:59 82.2 °F 61.7 °F 30 in West 2.9 mph 10 mph 50% 0 in 710 W/m2
17:04 82.6 °F 62.1 °F 30 in West 6.9 mph 9 mph 50% 0 in 673 W/m2
17:09 82.2 °F 62.2 °F 30 in WSW 4.9 mph 8 mph 51% 0 in 666 W/m2
17:14 82 °F 61.5 °F 30 in West 6 mph 8 mph 50% 0 in 633 W/m2
17:19 81.9 °F 61.9 °F 30 in WSW 2.9 mph 8 mph 51% 0 in 666 W/m2
17:24 82 °F 62.1 °F 30 in North 2.9 mph 10 mph 51% 0 in 643 W/m2
17:29 82.2 °F 61.7 °F 30 in NNW 8.1 mph 8 mph 50% 0 in 615 W/m2
17:34 82.2 °F 61.7 °F 30 in NW 4.9 mph 8 mph 50% 0 in 608 W/m2
17:39 82.2 °F 61.7 °F 30 in West 4 mph 6 mph 50% 0 in 527 W/m2
17:44 82.2 °F 61.7 °F 30 in WNW 2.9 mph 6 mph 50% 0 in 538 W/m2
17:49 82.6 °F 61.5 °F 30 in NW 2 mph 8 mph 49% 0 in 564 W/m2
17:54 82.6 °F 61.5 °F 30 in NW 4 mph 7 mph 49% 0 in 550 W/m2
17:59 82.8 °F 61.7 °F 30 in WNW 4 mph 6 mph 49% 0 in 534 W/m2
18:04 82.6 °F 61 °F 30 in West 6 mph 11 mph 48% 0 in 529 W/m2
18:09 82 °F 61.5 °F 30 in West 2.9 mph 6 mph 50% 0 in 506 W/m2
18:14 82 °F 61.5 °F 30 in WSW 4.9 mph 11 mph 50% 0 in 487 W/m2
18:19 82 °F 61 °F 30 in SW 4 mph 10 mph 49% 0 in 476 W/m2
18:24 81.9 °F 60.8 °F 30 in West 4 mph 4 mph 49% 0 in 446 W/m2
18:29 82 °F 61 °F 30 in West 2.9 mph 9 mph 49% 0 in 410 W/m2
18:34 82.2 °F 61.7 °F 30 in West 0.9 mph 6 mph 50% 0 in 374 W/m2
Juneau County Weather
Compliments of Weather Underground - 2 mb